PWSweather.com
Personal Weather Stations
Station Observations

ChardChardGB

Lat: 50.877408, Lon: -2.94964741

Elevation: 341

Station Type: WS3083

http://www.merriott-astro.co.uk/weather/index.htm

High Low Average
Temperature 64.9°F18.3°C 53.6°F12.0°C 58.9°F14.9°C
Dew Point 59.9°F15.5°C 50.3°F10.2°C 54.5°F12.5°C
Winds 21.9 mph 35.2 kmh 2.9 mph 4.7 kmh 8.0 mph SSW12.9 kmh SSW
Wind Gusts 31.1 mph50.1 kmh 4.5 mph7.2 kmh 12.0 mph19.3 kmh
Humidity 100% 61% 86%
Pressure 29.98 in1015.2 mb 29.67 in1004.7 mb -
Precipitation 0.78 in19.8 mm - -
Hour Temp Dew Point Humidity Winds Wind Gusts Pressure Precip Precip Rate Daily Precip Total
12:00 AM 54.0°F12.2°C 51.4°F10.8°C 91% 3.7 mph SSW6.0 kmh SSW 6.0 mph9.7 kmh 29.90 in1012.5 mb 0.00 in0.0 mm 0.00 in0.0 mm 0.00 in0.0 mm
12:01 AM 54.0°F12.2°C 51.4°F10.8°C 91% 3.8 mph S6.1 kmh S 6.0 mph9.7 kmh 29.90 in1012.5 mb 0.00 in0.0 mm 0.00 in0.0 mm 0.00 in0.0 mm
12:10 AM 53.8°F12.1°C 51.2°F10.7°C 91% 3.5 mph S5.6 kmh S 6.9 mph11.1 kmh 29.91 in1012.9 mb 0.00 in0.0 mm 0.00 in0.0 mm 0.00 in0.0 mm
12:20 AM 54.0°F12.2°C 51.4°F10.8°C 91% 3.5 mph SSW5.6 kmh SSW 6.9 mph11.1 kmh 29.91 in1012.9 mb 0.00 in0.0 mm 0.00 in0.0 mm 0.00 in0.0 mm
12:30 AM 55.0°F12.8°C 51.2°F10.7°C 87% 3.0 mph S4.8 kmh S 5.4 mph8.7 kmh 29.91 in1012.9 mb 0.01 in0.3 mm 0.06 in1.5 mm 0.01 in0.3 mm
12:40 AM 53.6°F12.0°C 51.0°F10.6°C 91% 3.1 mph S5.0 kmh S 5.4 mph8.7 kmh 29.91 in1012.9 mb 0.01 in0.3 mm 0.00 in0.0 mm 0.01 in0.3 mm
12:50 AM 53.6°F12.0°C 51.6°F10.9°C 93% 2.9 mph S4.7 kmh S 4.5 mph7.2 kmh 29.92 in1013.2 mb 0.01 in0.3 mm 0.00 in0.0 mm 0.01 in0.3 mm
01:00 AM 53.8°F12.1°C 51.8°F11.0°C 93% 3.3 mph S5.3 kmh S 4.5 mph7.2 kmh 29.91 in1012.9 mb 0.01 in0.3 mm 0.00 in0.0 mm 0.01 in0.3 mm
01:10 AM 53.8°F12.1°C 51.8°F11.0°C 93% 3.4 mph S5.5 kmh S 4.5 mph7.2 kmh 29.91 in1012.9 mb 0.01 in0.3 mm 0.00 in0.0 mm 0.01 in0.3 mm
01:20 AM 54.0°F12.2°C 52.3°F11.3°C 94% 3.6 mph SSE5.8 kmh SSE 6.0 mph9.7 kmh 29.91 in1012.9 mb 0.01 in0.3 mm 0.00 in0.0 mm 0.01 in0.3 mm
01:30 AM 54.0°F12.2°C 52.3°F11.3°C 94% 3.3 mph S5.3 kmh S 4.5 mph7.2 kmh 29.91 in1012.9 mb 0.01 in0.3 mm 0.00 in0.0 mm 0.02 in0.5 mm
01:40 AM 54.1°F12.3°C 52.7°F11.5°C 95% 4.3 mph SSW6.9 kmh SSW 6.0 mph9.7 kmh 29.91 in1012.9 mb 0.01 in0.3 mm 0.00 in0.0 mm 0.02 in0.5 mm
01:50 AM 54.3°F12.4°C 53.2°F11.8°C 96% 4.5 mph S7.2 kmh S 6.9 mph11.1 kmh 29.90 in1012.5 mb 0.01 in0.3 mm 0.00 in0.0 mm 0.02 in0.5 mm
02:00 AM 54.3°F12.4°C 53.2°F11.8°C 96% 4.2 mph SW6.8 kmh SW 6.0 mph9.7 kmh 29.90 in1012.5 mb 0.01 in0.3 mm 0.00 in0.0 mm 0.02 in0.5 mm
02:10 AM 54.5°F12.5°C 52.5°F11.4°C 93% 5.6 mph S9.0 kmh S 6.9 mph11.1 kmh 29.89 in1012.2 mb 0.01 in0.3 mm 0.00 in0.0 mm 0.02 in0.5 mm
02:20 AM 54.7°F12.6°C 52.7°F11.5°C 93% 4.3 mph SW6.9 kmh SW 5.4 mph8.7 kmh 29.90 in1012.5 mb 0.01 in0.3 mm 0.00 in0.0 mm 0.02 in0.5 mm
02:30 AM 54.9°F12.7°C 53.2°F11.8°C 94% 3.5 mph S5.6 kmh S 5.4 mph8.7 kmh 29.90 in1012.5 mb 0.00 in0.0 mm 0.00 in0.0 mm 0.02 in0.5 mm
02:40 AM 55.2°F12.9°C 53.2°F11.8°C 93% 4.9 mph S7.9 kmh S 7.6 mph12.2 kmh 29.90 in1012.5 mb 0.00 in0.0 mm 0.00 in0.0 mm 0.02 in0.5 mm
02:50 AM 55.4°F13.0°C 53.4°F11.9°C 93% 3.5 mph S5.6 kmh S 6.0 mph9.7 kmh 29.89 in1012.2 mb 0.00 in0.0 mm 0.00 in0.0 mm 0.02 in0.5 mm
03:00 AM 55.8°F13.2°C 53.8°F12.1°C 93% 4.2 mph S6.8 kmh S 6.0 mph9.7 kmh 29.90 in1012.5 mb 0.00 in0.0 mm 0.00 in0.0 mm 0.02 in0.5 mm
03:10 AM 55.9°F13.3°C 54.0°F12.2°C 93% 4.6 mph SW7.4 kmh SW 6.9 mph11.1 kmh 29.91 in1012.9 mb 0.00 in0.0 mm 0.00 in0.0 mm 0.02 in0.5 mm
03:20 AM 55.9°F13.3°C 54.0°F12.2°C 93% 4.3 mph S6.9 kmh S 6.9 mph11.1 kmh 29.90 in1012.5 mb 0.00 in0.0 mm 0.00 in0.0 mm 0.02 in0.5 mm
03:30 AM 56.3°F13.5°C 54.3°F12.4°C 93% 4.7 mph S7.6 kmh S 9.2 mph14.8 kmh 29.91 in1012.9 mb 0.00 in0.0 mm 0.00 in0.0 mm 0.02 in0.5 mm
03:40 AM 56.5°F13.6°C 54.2°F12.3°C 92% 4.4 mph SSW7.1 kmh SSW 9.2 mph14.8 kmh 29.91 in1012.9 mb 0.00 in0.0 mm 0.00 in0.0 mm 0.02 in0.5 mm
03:50 AM 56.8°F13.8°C 54.3°F12.4°C 91% 4.8 mph SW7.7 kmh SW 10.7 mph17.2 kmh 29.91 in1012.9 mb 0.00 in0.0 mm 0.00 in0.0 mm 0.02 in0.5 mm
04:00 AM 56.8°F13.8°C 53.9°F12.2°C 90% 4.7 mph SE7.6 kmh SE 8.3 mph13.4 kmh 29.91 in1012.9 mb 0.00 in0.0 mm 0.00 in0.0 mm 0.02 in0.5 mm
04:10 AM 56.8°F13.8°C 53.9°F12.2°C 90% 4.5 mph SSW7.2 kmh SSW 9.2 mph14.8 kmh 29.90 in1012.5 mb 0.00 in0.0 mm 0.00 in0.0 mm 0.02 in0.5 mm
04:20 AM 57.0°F13.9°C 54.1°F12.3°C 90% 5.5 mph SW8.9 kmh SW 10.7 mph17.2 kmh 29.90 in1012.5 mb 0.00 in0.0 mm 0.00 in0.0 mm 0.02 in0.5 mm
04:30 AM 57.0°F13.9°C 54.1°F12.3°C 90% 3.3 mph S5.3 kmh S 6.9 mph11.1 kmh 29.91 in1012.9 mb 0.00 in0.0 mm 0.00 in0.0 mm 0.02 in0.5 mm
04:40 AM 57.2°F14.0°C 54.0°F12.2°C 89% 5.4 mph S8.7 kmh S 8.3 mph13.4 kmh 29.91 in1012.9 mb 0.00 in0.0 mm 0.00 in0.0 mm 0.02 in0.5 mm
04:50 AM 57.4°F14.1°C 53.9°F12.2°C 88% 5.8 mph SW9.3 kmh SW 8.3 mph13.4 kmh 29.91 in1012.9 mb 0.00 in0.0 mm 0.00 in0.0 mm 0.02 in0.5 mm
05:00 AM 57.4°F14.1°C 53.2°F11.8°C 86% 6.6 mph SW10.6 kmh SW 12.1 mph19.5 kmh 29.91 in1012.9 mb 0.00 in0.0 mm 0.00 in0.0 mm 0.02 in0.5 mm
05:10 AM 57.6°F14.2°C 53.1°F11.7°C 85% 6.5 mph SW10.5 kmh SW 12.1 mph19.5 kmh 29.91 in1012.9 mb 0.00 in0.0 mm 0.00 in0.0 mm 0.02 in0.5 mm
05:20 AM 57.4°F14.1°C 52.6°F11.4°C 84% 5.8 mph SW9.3 kmh SW 8.3 mph13.4 kmh 29.92 in1013.2 mb 0.00 in0.0 mm 0.00 in0.0 mm 0.02 in0.5 mm
05:30 AM 57.2°F14.0°C 52.7°F11.5°C 85% 5.8 mph SSW9.3 kmh SSW 7.6 mph12.2 kmh 29.92 in1013.2 mb 0.00 in0.0 mm 0.00 in0.0 mm 0.02 in0.5 mm
05:40 AM 57.2°F14.0°C 52.7°F11.5°C 85% 5.8 mph SW9.3 kmh SW 7.6 mph12.2 kmh 29.92 in1013.2 mb 0.00 in0.0 mm 0.00 in0.0 mm 0.02 in0.5 mm
05:50 AM 57.2°F14.0°C 52.4°F11.3°C 84% 5.3 mph S8.5 kmh S 6.9 mph11.1 kmh 29.91 in1012.9 mb 0.00 in0.0 mm 0.00 in0.0 mm 0.02 in0.5 mm
06:00 AM 57.2°F14.0°C 52.4°F11.3°C 84% 6.8 mph SW10.9 kmh SW 10.7 mph17.2 kmh 29.91 in1012.9 mb 0.00 in0.0 mm 0.00 in0.0 mm 0.02 in0.5 mm
06:10 AM 57.2°F14.0°C 52.1°F11.2°C 83% 6.2 mph S10.0 kmh S 9.2 mph14.8 kmh 29.92 in1013.2 mb 0.00 in0.0 mm 0.00 in0.0 mm 0.02 in0.5 mm
06:20 AM 57.2°F14.0°C 51.8°F11.0°C 82% 6.3 mph SSW10.1 kmh SSW 11.4 mph18.3 kmh 29.93 in1013.5 mb 0.00 in0.0 mm 0.00 in0.0 mm 0.02 in0.5 mm
06:30 AM 57.2°F14.0°C 51.8°F11.0°C 82% 6.7 mph SW10.8 kmh SW 10.7 mph17.2 kmh 29.92 in1013.2 mb 0.00 in0.0 mm 0.00 in0.0 mm 0.02 in0.5 mm
06:40 AM 57.0°F13.9°C 51.6°F10.9°C 82% 5.7 mph SSW9.2 kmh SSW 9.2 mph14.8 kmh 29.93 in1013.5 mb 0.00 in0.0 mm 0.00 in0.0 mm 0.02 in0.5 mm
06:50 AM 57.0°F13.9°C 51.6°F10.9°C 82% 4.5 mph S7.2 kmh S 6.9 mph11.1 kmh 29.93 in1013.5 mb 0.00 in0.0 mm 0.00 in0.0 mm 0.02 in0.5 mm
07:00 AM 57.4°F14.1°C 51.6°F10.9°C 81% 6.4 mph SSW10.3 kmh SSW 8.3 mph13.4 kmh 29.93 in1013.5 mb 0.00 in0.0 mm 0.00 in0.0 mm 0.02 in0.5 mm
07:10 AM 57.6°F14.2°C 51.8°F11.0°C 81% 5.2 mph SE8.4 kmh SE 7.6 mph12.2 kmh 29.93 in1013.5 mb 0.00 in0.0 mm 0.00 in0.0 mm 0.02 in0.5 mm
07:20 AM 58.1°F14.5°C 52.3°F11.3°C 81% 5.1 mph S8.2 kmh S 8.3 mph13.4 kmh 29.94 in1013.9 mb 0.00 in0.0 mm 0.00 in0.0 mm 0.02 in0.5 mm
07:30 AM 58.3°F14.6°C 51.8°F11.0°C 79% 5.2 mph SW8.4 kmh SW 8.3 mph13.4 kmh 29.94 in1013.9 mb 0.00 in0.0 mm 0.00 in0.0 mm 0.02 in0.5 mm
07:40 AM 59.0°F15.0°C 52.5°F11.4°C 79% 5.5 mph SW8.9 kmh SW 8.3 mph13.4 kmh 29.94 in1013.9 mb 0.00 in0.0 mm 0.00 in0.0 mm 0.02 in0.5 mm
07:50 AM 58.8°F14.9°C 52.0°F11.1°C 78% 5.9 mph S9.5 kmh S 6.9 mph11.1 kmh 29.96 in1014.6 mb 0.00 in0.0 mm 0.00 in0.0 mm 0.02 in0.5 mm
08:00 AM 58.5°F14.7°C 52.0°F11.1°C 79% 6.6 mph SSW10.6 kmh SSW 8.3 mph13.4 kmh 29.96 in1014.6 mb 0.00 in0.0 mm 0.00 in0.0 mm 0.02 in0.5 mm
08:10 AM 59.2°F15.1°C 52.7°F11.5°C 79% 5.5 mph W8.9 kmh W 6.9 mph11.1 kmh 29.96 in1014.6 mb 0.00 in0.0 mm 0.00 in0.0 mm 0.02 in0.5 mm
08:20 AM 60.8°F16.0°C 53.9°F12.2°C 78% 5.0 mph S8.0 kmh S 7.6 mph12.2 kmh 29.96 in1014.6 mb 0.00 in0.0 mm 0.00 in0.0 mm 0.02 in0.5 mm
08:30 AM 61.5°F16.4°C 53.2°F11.8°C 74% 6.5 mph SW10.5 kmh SW 10.7 mph17.2 kmh 29.96 in1014.6 mb 0.00 in0.0 mm 0.00 in0.0 mm 0.02 in0.5 mm
08:40 AM 61.2°F16.2°C 53.2°F11.8°C 75% 6.1 mph WSW9.8 kmh WSW 10.7 mph17.2 kmh 29.97 in1014.9 mb 0.00 in0.0 mm 0.00 in0.0 mm 0.02 in0.5 mm
08:50 AM 60.6°F15.9°C 53.0°F11.7°C 76% 7.1 mph WSW11.4 kmh WSW 9.8 mph15.8 kmh 29.97 in1014.9 mb 0.00 in0.0 mm 0.00 in0.0 mm 0.02 in0.5 mm
09:00 AM 60.1°F15.6°C 52.9°F11.6°C 77% 6.5 mph NW10.5 kmh NW 8.3 mph13.4 kmh 29.97 in1014.9 mb 0.00 in0.0 mm 0.00 in0.0 mm 0.02 in0.5 mm
09:10 AM 59.9°F15.5°C 53.0°F11.7°C 78% 6.2 mph WSW10.0 kmh WSW 9.8 mph15.8 kmh 29.97 in1014.9 mb 0.00 in0.0 mm 0.00 in0.0 mm 0.02 in0.5 mm
09:20 AM 59.9°F15.5°C 52.7°F11.5°C 77% 5.6 mph SW9.0 kmh SW 7.6 mph12.2 kmh 29.97 in1014.9 mb 0.00 in0.0 mm 0.00 in0.0 mm 0.02 in0.5 mm
09:30 AM 61.0°F16.1°C 53.7°F12.1°C 77% 8.2 mph W13.2 kmh W 12.1 mph19.5 kmh 29.97 in1014.9 mb 0.00 in0.0 mm 0.00 in0.0 mm 0.02 in0.5 mm
09:40 AM 62.2°F16.8°C 54.2°F12.3°C 75% 6.8 mph SW10.9 kmh SW 10.7 mph17.2 kmh 29.97 in1014.9 mb 0.00 in0.0 mm 0.00 in0.0 mm 0.02 in0.5 mm
09:50 AM 63.0°F17.2°C 53.8°F12.1°C 72% 6.3 mph SSW10.1 kmh SSW 8.3 mph13.4 kmh 29.97 in1014.9 mb 0.00 in0.0 mm 0.00 in0.0 mm 0.02 in0.5 mm
10:00 AM 62.6°F17.0°C 53.1°F11.7°C 71% 6.5 mph WSW10.5 kmh WSW 9.8 mph15.8 kmh 29.97 in1014.9 mb 0.00 in0.0 mm 0.00 in0.0 mm 0.02 in0.5 mm
10:10 AM 63.1°F17.3°C 53.6°F12.0°C 71% 6.6 mph S10.6 kmh S 9.2 mph14.8 kmh 29.97 in1014.9 mb 0.00 in0.0 mm 0.00 in0.0 mm 0.02 in0.5 mm
10:20 AM 63.9°F17.7°C 51.5°F10.8°C 64% 7.7 mph SW12.4 kmh SW 10.7 mph17.2 kmh 29.98 in1015.2 mb 0.00 in0.0 mm 0.00 in0.0 mm 0.02 in0.5 mm
10:30 AM 64.9°F18.3°C 51.6°F10.9°C 62% 7.0 mph SSW11.3 kmh SSW 11.4 mph18.3 kmh 29.98 in1015.2 mb 0.00 in0.0 mm 0.00 in0.0 mm 0.02 in0.5 mm
10:40 AM 63.9°F17.7°C 50.6°F10.3°C 62% 7.2 mph W11.6 kmh W 11.4 mph18.3 kmh 29.97 in1014.9 mb 0.00 in0.0 mm 0.00 in0.0 mm 0.02 in0.5 mm
10:50 AM 62.1°F16.7°C 52.6°F11.4°C 71% 7.4 mph SW11.9 kmh SW 10.7 mph17.2 kmh 29.97 in1014.9 mb 0.00 in0.0 mm 0.00 in0.0 mm 0.02 in0.5 mm
11:00 AM 61.2°F16.2°C 53.2°F11.8°C 75% 6.3 mph WNW10.1 kmh WNW 9.2 mph14.8 kmh 29.98 in1015.2 mb 0.00 in0.0 mm 0.00 in0.0 mm 0.02 in0.5 mm
11:10 AM 60.6°F15.9°C 53.0°F11.7°C 76% 4.9 mph WSW7.9 kmh WSW 7.6 mph12.2 kmh 29.98 in1015.2 mb 0.00 in0.0 mm 0.00 in0.0 mm 0.02 in0.5 mm
11:20 AM 60.6°F15.9°C 53.4°F11.9°C 77% 5.2 mph WNW8.4 kmh WNW 7.6 mph12.2 kmh 29.97 in1014.9 mb 0.00 in0.0 mm 0.00 in0.0 mm 0.02 in0.5 mm
11:30 AM 63.1°F17.3°C 55.8°F13.2°C 77% 5.5 mph SW8.9 kmh SW 8.3 mph13.4 kmh 29.98 in1015.2 mb 0.00 in0.0 mm 0.00 in0.0 mm 0.02 in0.5 mm
11:40 AM 61.5°F16.4°C 53.2°F11.8°C 74% 7.7 mph WSW12.4 kmh WSW 13.6 mph21.9 kmh 29.98 in1015.2 mb 0.00 in0.0 mm 0.00 in0.0 mm 0.02 in0.5 mm
11:50 AM 63.1°F17.3°C 54.4°F12.4°C 73% 5.7 mph NNW9.2 kmh NNW 9.2 mph14.8 kmh 29.97 in1014.9 mb 0.00 in0.0 mm 0.00 in0.0 mm 0.02 in0.5 mm
12:00 PM 64.0°F17.8°C 52.5°F11.4°C 66% 7.9 mph WSW12.7 kmh WSW 10.7 mph17.2 kmh 29.97 in1014.9 mb 0.00 in0.0 mm 0.00 in0.0 mm 0.02 in0.5 mm
12:10 PM 59.9°F15.5°C 52.0°F11.1°C 75% 10.7 mph WNW17.2 kmh WNW 14.5 mph23.3 kmh 29.98 in1015.2 mb 0.00 in0.0 mm 0.00 in0.0 mm 0.02 in0.5 mm
12:20 PM 59.7°F15.4°C 53.6°F12.0°C 80% 5.9 mph NW9.5 kmh NW 10.7 mph17.2 kmh 29.98 in1015.2 mb 0.00 in0.0 mm 0.00 in0.0 mm 0.02 in0.5 mm
12:30 PM 61.9°F16.6°C 53.9°F12.2°C 75% 5.8 mph S9.3 kmh S 9.2 mph14.8 kmh 29.98 in1015.2 mb 0.00 in0.0 mm 0.00 in0.0 mm 0.02 in0.5 mm
12:40 PM 62.4°F16.9°C 54.0°F12.2°C 74% 6.0 mph SW9.7 kmh SW 10.7 mph17.2 kmh 29.97 in1014.9 mb 0.00 in0.0 mm 0.00 in0.0 mm 0.02 in0.5 mm
12:50 PM 64.6°F18.1°C 53.4°F11.9°C 67% 6.4 mph SW10.3 kmh SW 9.8 mph15.8 kmh 29.97 in1014.9 mb 0.00 in0.0 mm 0.00 in0.0 mm 0.02 in0.5 mm
01:00 PM 62.8°F17.1°C 53.3°F11.8°C 71% 5.5 mph SW8.9 kmh SW 8.3 mph13.4 kmh 29.97 in1014.9 mb 0.01 in0.3 mm 0.01 in0.3 mm 0.04 in1.0 mm
01:10 PM 61.5°F16.4°C 52.0°F11.1°C 71% 6.3 mph WSW10.1 kmh WSW 9.2 mph14.8 kmh 29.97 in1014.9 mb 0.01 in0.3 mm 0.00 in0.0 mm 0.04 in1.0 mm
01:20 PM 61.9°F16.6°C 52.4°F11.3°C 71% 6.3 mph SW10.1 kmh SW 9.8 mph15.8 kmh 29.97 in1014.9 mb 0.01 in0.3 mm 0.00 in0.0 mm 0.04 in1.0 mm
01:30 PM 62.1°F16.7°C 51.0°F10.6°C 67% 7.0 mph W11.3 kmh W 9.8 mph15.8 kmh 29.97 in1014.9 mb 0.01 in0.3 mm 0.00 in0.0 mm 0.04 in1.0 mm
01:40 PM 61.9°F16.6°C 50.8°F10.4°C 67% 5.1 mph SSW8.2 kmh SSW 9.2 mph14.8 kmh 29.97 in1014.9 mb 0.01 in0.3 mm 0.00 in0.0 mm 0.04 in1.0 mm
01:50 PM 61.9°F16.6°C 51.2°F10.7°C 68% 4.0 mph WSW6.4 kmh WSW 6.9 mph11.1 kmh 29.97 in1014.9 mb 0.01 in0.3 mm 0.00 in0.0 mm 0.04 in1.0 mm
02:00 PM 63.1°F17.3°C 52.0°F11.1°C 67% 4.8 mph SW7.7 kmh SW 9.8 mph15.8 kmh 29.96 in1014.6 mb 0.00 in0.0 mm 0.00 in0.0 mm 0.04 in1.0 mm
02:10 PM 64.0°F17.8°C 50.3°F10.2°C 61% 4.6 mph SSE7.4 kmh SSE 7.6 mph12.2 kmh 29.96 in1014.6 mb 0.00 in0.0 mm 0.00 in0.0 mm 0.04 in1.0 mm
02:20 PM 63.0°F17.2°C 51.0°F10.6°C 65% 5.7 mph SW9.2 kmh SW 10.7 mph17.2 kmh 29.95 in1014.2 mb 0.00 in0.0 mm 0.00 in0.0 mm 0.04 in1.0 mm
02:30 PM 63.0°F17.2°C 52.3°F11.3°C 68% 5.0 mph SW8.0 kmh SW 7.6 mph12.2 kmh 29.96 in1014.6 mb 0.00 in0.0 mm 0.00 in0.0 mm 0.04 in1.0 mm
02:40 PM 62.4°F16.9°C 52.1°F11.2°C 69% 6.5 mph SSW10.5 kmh SSW 8.3 mph13.4 kmh 29.96 in1014.6 mb 0.00 in0.0 mm 0.00 in0.0 mm 0.04 in1.0 mm
02:50 PM 62.4°F16.9°C 52.5°F11.4°C 70% 4.4 mph S7.1 kmh S 9.8 mph15.8 kmh 29.94 in1013.9 mb 0.00 in0.0 mm 0.00 in0.0 mm 0.04 in1.0 mm
03:00 PM 62.2°F16.8°C 52.7°F11.5°C 71% 5.9 mph S9.5 kmh S 12.1 mph19.5 kmh 29.94 in1013.9 mb 0.00 in0.0 mm 0.00 in0.0 mm 0.04 in1.0 mm
03:10 PM 61.7°F16.5°C 52.2°F11.2°C 71% 7.6 mph SW12.2 kmh SW 12.1 mph19.5 kmh 29.95 in1014.2 mb 0.00 in0.0 mm 0.00 in0.0 mm 0.04 in1.0 mm
03:20 PM 61.2°F16.2°C 52.5°F11.4°C 73% 5.8 mph SW9.3 kmh SW 7.6 mph12.2 kmh 29.95 in1014.2 mb 0.00 in0.0 mm 0.00 in0.0 mm 0.04 in1.0 mm
03:30 PM 61.0°F16.1°C 54.1°F12.3°C 78% 5.2 mph SSW8.4 kmh SSW 9.2 mph14.8 kmh 29.94 in1013.9 mb 0.00 in0.0 mm 0.00 in0.0 mm 0.04 in1.0 mm
03:40 PM 60.3°F15.7°C 54.8°F12.7°C 82% 6.8 mph S10.9 kmh S 13.6 mph21.9 kmh 29.94 in1013.9 mb 0.00 in0.0 mm 0.00 in0.0 mm 0.04 in1.0 mm
03:50 PM 59.9°F15.5°C 55.4°F13.0°C 85% 4.7 mph S7.6 kmh S 7.6 mph12.2 kmh 29.93 in1013.5 mb 0.00 in0.0 mm 0.00 in0.0 mm 0.04 in1.0 mm
04:00 PM 59.5°F15.3°C 54.7°F12.6°C 84% 6.4 mph S10.3 kmh S 9.8 mph15.8 kmh 29.93 in1013.5 mb 0.00 in0.0 mm 0.00 in0.0 mm 0.04 in1.0 mm
04:10 PM 59.2°F15.1°C 54.7°F12.6°C 85% 6.5 mph SW10.5 kmh SW 9.8 mph15.8 kmh 29.93 in1013.5 mb 0.00 in0.0 mm 0.00 in0.0 mm 0.04 in1.0 mm
04:20 PM 59.0°F15.0°C 54.5°F12.5°C 85% 7.7 mph SW12.4 kmh SW 9.8 mph15.8 kmh 29.91 in1012.9 mb 0.00 in0.0 mm 0.00 in0.0 mm 0.04 in1.0 mm
04:30 PM 58.8°F14.9°C 55.0°F12.8°C 87% 6.5 mph S10.5 kmh S 10.7 mph17.2 kmh 29.91 in1012.9 mb 0.00 in0.0 mm 0.00 in0.0 mm 0.04 in1.0 mm
04:40 PM 58.6°F14.8°C 55.7°F13.2°C 90% 7.5 mph SSE12.1 kmh SSE 13.6 mph21.9 kmh 29.91 in1012.9 mb 0.00 in0.0 mm 0.00 in0.0 mm 0.04 in1.0 mm
04:50 PM 58.3°F14.6°C 56.0°F13.3°C 92% 9.0 mph S14.5 kmh S 15.2 mph24.5 kmh 29.89 in1012.2 mb 0.02 in0.5 mm 0.12 in3.0 mm 0.06 in1.5 mm
05:00 PM 57.9°F14.4°C 55.9°F13.3°C 93% 10.0 mph SSW16.1 kmh SSW 14.5 mph23.3 kmh 29.91 in1012.9 mb 0.04 in1.0 mm 0.02 in0.5 mm 0.07 in1.8 mm
05:10 PM 57.4°F14.1°C 55.4°F13.0°C 93% 8.8 mph S14.2 kmh S 14.5 mph23.3 kmh 29.90 in1012.5 mb 0.08 in2.0 mm 0.24 in6.1 mm 0.12 in3.0 mm
05:20 PM 57.0°F13.9°C 55.6°F13.1°C 95% 9.5 mph SSW15.3 kmh SSW 14.5 mph23.3 kmh 29.88 in1011.9 mb 0.11 in2.8 mm 0.18 in4.6 mm 0.14 in3.6 mm
05:30 PM 56.7°F13.7°C 55.5°F13.1°C 96% 8.4 mph S13.5 kmh S 14.5 mph23.3 kmh 29.88 in1011.9 mb 0.13 in3.3 mm 0.12 in3.0 mm 0.17 in4.3 mm
05:40 PM 56.7°F13.7°C 55.8°F13.2°C 97% 6.0 mph S9.7 kmh S 13.0 mph20.9 kmh 29.88 in1011.9 mb 0.14 in3.6 mm 0.06 in1.5 mm 0.18 in4.6 mm
05:50 PM 56.8°F13.8°C 56.6°F13.7°C 99% 6.8 mph S10.9 kmh S 10.7 mph17.2 kmh 29.86 in1011.2 mb 0.17 in4.3 mm 0.18 in4.6 mm 0.22 in5.6 mm
06:00 PM 57.2°F14.0°C 56.9°F13.8°C 99% 7.4 mph SSW11.9 kmh SSW 10.7 mph17.2 kmh 29.85 in1010.8 mb 0.15 in3.8 mm 0.00 in0.0 mm 0.24 in6.1 mm
06:10 PM 57.4°F14.1°C 57.1°F13.9°C 99% 10.1 mph SSW16.3 kmh SSW 18.3 mph29.5 kmh 29.84 in1010.5 mb 0.12 in3.0 mm 0.00 in0.0 mm 0.24 in6.1 mm
06:20 PM 57.6°F14.2°C 57.3°F14.1°C 99% 9.1 mph SW14.6 kmh SW 11.4 mph18.3 kmh 29.84 in1010.5 mb 0.11 in2.8 mm 0.00 in0.0 mm 0.25 in6.4 mm
06:30 PM 57.7°F14.3°C 57.5°F14.2°C 99% 11.4 mph S18.3 kmh S 18.3 mph29.5 kmh 29.84 in1010.5 mb 0.11 in2.8 mm 0.00 in0.0 mm 0.27 in6.9 mm
06:40 PM 58.1°F14.5°C 57.8°F14.3°C 99% 9.1 mph S14.6 kmh S 13.6 mph21.9 kmh 29.82 in1009.8 mb 0.12 in3.0 mm 0.06 in1.5 mm 0.30 in7.6 mm
06:50 PM 58.5°F14.7°C 58.2°F14.6°C 99% 12.8 mph SW20.6 kmh SW 16.8 mph27.0 kmh 29.82 in1009.8 mb 0.08 in2.0 mm 0.00 in0.0 mm 0.31 in7.9 mm
07:00 PM 59.0°F15.0°C 58.7°F14.8°C 99% 11.9 mph SW19.2 kmh SW 23.5 mph37.8 kmh 29.81 in1009.5 mb 0.08 in2.0 mm 0.00 in0.0 mm 0.32 in8.1 mm
07:10 PM 59.2°F15.1°C 58.9°F14.9°C 99% 13.2 mph SW21.2 kmh SW 18.3 mph29.5 kmh 29.81 in1009.5 mb 0.09 in2.3 mm 0.06 in1.5 mm 0.33 in8.4 mm
07:20 PM 59.5°F15.3°C 59.3°F15.2°C 99% 12.3 mph S19.8 kmh S 16.8 mph27.0 kmh 29.80 in1009.1 mb 0.09 in2.3 mm 0.00 in0.0 mm 0.34 in8.6 mm
07:30 PM 59.5°F15.3°C 59.3°F15.2°C 99% 11.0 mph S17.7 kmh S 16.8 mph27.0 kmh 29.80 in1009.1 mb 0.08 in2.0 mm 0.00 in0.0 mm 0.37 in9.4 mm
07:40 PM 59.7°F15.4°C 59.5°F15.3°C 99% 15.3 mph SSW24.6 kmh SSW 21.3 mph34.3 kmh 29.79 in1008.8 mb 0.08 in2.0 mm 0.00 in0.0 mm 0.38 in9.7 mm
07:50 PM 59.7°F15.4°C 59.5°F15.3°C 99% 13.3 mph SSE21.4 kmh SSE 16.8 mph27.0 kmh 29.79 in1008.8 mb 0.07 in1.8 mm 0.00 in0.0 mm 0.38 in9.7 mm
08:00 PM 59.7°F15.4°C 59.5°F15.3°C 99% 14.9 mph SSW24.0 kmh SSW 20.6 mph33.2 kmh 29.78 in1008.5 mb 0.06 in1.5 mm 0.00 in0.0 mm 0.38 in9.7 mm
08:10 PM 59.9°F15.5°C 59.6°F15.3°C 99% 12.5 mph S20.1 kmh S 17.4 mph28.0 kmh 29.78 in1008.5 mb 0.06 in1.5 mm 0.00 in0.0 mm 0.39 in9.9 mm
08:20 PM 59.9°F15.5°C 59.6°F15.3°C 99% 16.5 mph SW26.6 kmh SW 27.3 mph43.9 kmh 29.78 in1008.5 mb 0.05 in1.3 mm 0.00 in0.0 mm 0.39 in9.9 mm
08:30 PM 59.9°F15.5°C 59.6°F15.3°C 99% 17.7 mph S28.5 kmh S 27.3 mph43.9 kmh 29.76 in1007.8 mb 0.02 in0.5 mm 0.00 in0.0 mm 0.39 in9.9 mm
08:40 PM 59.9°F15.5°C 59.6°F15.3°C 99% 18.3 mph SSW29.5 kmh SSW 23.5 mph37.8 kmh 29.76 in1007.8 mb 0.02 in0.5 mm 0.00 in0.0 mm 0.40 in10.2 mm
08:50 PM 59.9°F15.5°C 59.6°F15.3°C 99% 13.1 mph SSW21.1 kmh SSW 17.4 mph28.0 kmh 29.76 in1007.8 mb 0.02 in0.5 mm 0.00 in0.0 mm 0.40 in10.2 mm
09:00 PM 59.9°F15.5°C 59.6°F15.3°C 99% 16.8 mph S27.0 kmh S 25.1 mph40.4 kmh 29.75 in1007.5 mb 0.02 in0.5 mm 0.00 in0.0 mm 0.40 in10.2 mm
09:10 PM 59.9°F15.5°C 59.9°F15.5°C 100% 11.7 mph SSW18.8 kmh SSW 16.8 mph27.0 kmh 29.76 in1007.8 mb 0.01 in0.3 mm 0.00 in0.0 mm 0.40 in10.2 mm
09:20 PM 59.9°F15.5°C 59.9°F15.5°C 100% 15.6 mph SW25.1 kmh SW 23.5 mph37.8 kmh 29.74 in1007.1 mb 0.01 in0.3 mm 0.00 in0.0 mm 0.40 in10.2 mm
09:30 PM 59.9°F15.5°C 59.1°F15.1°C 97% 14.8 mph SW23.8 kmh SW 22.8 mph36.7 kmh 29.74 in1007.1 mb 0.01 in0.3 mm 0.00 in0.0 mm 0.40 in10.2 mm
09:40 PM 59.9°F15.5°C 59.1°F15.1°C 97% 18.1 mph S29.1 kmh S 25.1 mph40.4 kmh 29.73 in1006.8 mb 0.02 in0.5 mm 0.06 in1.5 mm 0.43 in10.9 mm
09:50 PM 59.7°F15.4°C 59.7°F15.4°C 100% 19.5 mph S31.4 kmh S 31.1 mph50.1 kmh 29.72 in1006.4 mb 0.02 in0.5 mm 0.00 in0.0 mm 0.43 in10.9 mm
10:00 PM 59.5°F15.3°C 59.3°F15.2°C 99% 16.2 mph S26.1 kmh S 25.1 mph40.4 kmh 29.72 in1006.4 mb 0.05 in1.3 mm 0.04 in1.0 mm 0.45 in11.4 mm
10:10 PM 59.5°F15.3°C 59.3°F15.2°C 99% 15.0 mph S24.1 kmh S 21.3 mph34.3 kmh 29.72 in1006.4 mb 0.08 in2.0 mm 0.18 in4.6 mm 0.48 in12.2 mm
10:20 PM 59.4°F15.2°C 59.1°F15.1°C 99% 16.1 mph S25.9 kmh S 22.8 mph36.7 kmh 29.72 in1006.4 mb 0.13 in3.3 mm 0.30 in7.6 mm 0.53 in13.5 mm
10:30 PM 59.4°F15.2°C 59.1°F15.1°C 99% 19.3 mph S31.1 kmh S 28.2 mph45.4 kmh 29.70 in1005.8 mb 0.18 in4.6 mm 0.30 in7.6 mm 0.58 in14.7 mm
10:40 PM 59.4°F15.2°C 59.1°F15.1°C 99% 17.0 mph S27.4 kmh S 22.8 mph36.7 kmh 29.70 in1005.8 mb 0.20 in5.1 mm 0.12 in3.0 mm 0.63 in16.0 mm
10:50 PM 59.4°F15.2°C 59.1°F15.1°C 99% 17.4 mph S28.0 kmh S 22.1 mph35.6 kmh 29.69 in1005.4 mb 0.24 in6.1 mm 0.24 in6.1 mm 0.67 in17.0 mm
11:00 PM 59.4°F15.2°C 59.1°F15.1°C 99% 21.9 mph S35.2 kmh S 27.3 mph43.9 kmh 29.69 in1005.4 mb 0.25 in6.4 mm 0.01 in0.3 mm 0.70 in17.8 mm
11:10 PM 59.4°F15.2°C 59.1°F15.1°C 99% 15.8 mph SW25.4 kmh SW 21.3 mph34.3 kmh 29.69 in1005.4 mb 0.21 in5.3 mm 0.00 in0.0 mm 0.70 in17.8 mm
11:20 PM 59.4°F15.2°C 59.1°F15.1°C 99% 16.4 mph SSE26.4 kmh SSE 23.5 mph37.8 kmh 29.68 in1005.1 mb 0.18 in4.6 mm 0.00 in0.0 mm 0.72 in18.3 mm
11:30 PM 59.4°F15.2°C 59.1°F15.1°C 99% 15.7 mph S25.3 kmh S 24.4 mph39.3 kmh 29.67 in1004.7 mb 0.17 in4.3 mm 0.00 in0.0 mm 0.74 in18.8 mm
11:40 PM 59.4°F15.2°C 59.1°F15.1°C 99% 16.3 mph S26.2 kmh S 29.8 mph48.0 kmh 29.68 in1005.1 mb 0.13 in3.3 mm 0.00 in0.0 mm 0.76 in19.3 mm
11:50 PM 59.4°F15.2°C 59.1°F15.1°C 99% 18.3 mph S29.5 kmh S 29.8 mph48.0 kmh 29.67 in1004.7 mb 0.11 in2.8 mm 0.00 in0.0 mm 0.78 in19.8 mm